Time;durP1;ratioP1;P1;durP2;ratioP2;P2;SDS_P1;SDS_P2;PMS_P1;PMS_P2;Temp;Humidity;BMP_temperature;BMP_pressure;BME280_temperature;BME280_humidity;BME280_pressure;Samples;Min_cycle;Max_cycle;Signal;HPM_P1;HPM_P2
2023/10/22 00:02:02;;;;;;;7.63;2.03;;;30.70;54.70;;;;;;5004980;28;20233;-73
2023/10/22 00:04:30;;;;;;;13.20;2.58;;;30.90;51.70;;;;;;5013884;28;20174;-74
2023/10/22 00:06:58;;;;;;;11.70;2.40;;;30.90;50.20;;;;;;5012753;28;20186;-75
2023/10/22 00:09:26;;;;;;;8.20;2.10;;;30.50;47.60;;;;;;5013584;28;20178;-76
2023/10/22 00:11:53;;;;;;;7.47;2.15;;;31.00;47.80;;;;;;5013330;28;20186;-73
2023/10/22 00:14:21;;;;;;;6.70;2.08;;;31.30;47.60;;;;;;5013959;28;20178;-73
2023/10/22 00:16:49;;;;;;;7.68;2.60;;;31.80;43.50;;;;;;5014130;28;20571;-72
2023/10/22 00:19:17;;;;;;;6.40;2.20;;;31.60;45.20;;;;;;5014565;28;20639;-70
2023/10/22 00:21:46;;;;;;;9.07;2.28;;;31.70;41.40;;;;;;5013525;28;20178;-71
2023/10/22 00:24:14;;;;;;;5.70;2.08;;;32.20;44.40;;;;;;5013719;28;20185;-68
2023/10/22 00:26:42;;;;;;;6.25;1.98;;;32.70;42.30;;;;;;5013754;28;20681;-75
2023/10/22 00:29:10;;;;;;;8.50;2.15;;;32.70;39.30;;;;;;5013949;28;20181;-76
2023/10/22 00:31:37;;;;;;;7.55;2.03;;;32.60;43.80;;;;;;5013469;28;20651;-71
2023/10/22 00:34:06;;;;;;;8.05;2.40;;;32.90;39.30;;;;;;5014812;28;20236;-74
2023/10/22 00:36:34;;;;;;;7.82;1.98;;;33.30;32.30;;;;;;5015139;28;20569;-75
2023/10/22 00:39:01;;;;;;;7.25;1.92;;;33.10;34.90;;;;;;5015083;28;20209;-70
2023/10/22 00:41:29;;;;;;;6.93;2.05;;;33.30;30.00;;;;;;5014328;28;20224;-74
2023/10/22 00:43:57;;;;;;;10.35;2.22;;;33.20;28.00;;;;;;5013942;28;20190;-75
2023/10/22 00:46:26;;;;;;;5.38;2.17;;;33.20;28.40;;;;;;5014967;28;20193;-71
2023/10/22 00:48:55;;;;;;;7.80;1.85;;;33.40;27.10;;;;;;5014932;28;20636;-75
2023/10/22 00:51:23;;;;;;;4.03;2.00;;;33.50;26.50;;;;;;5014576;28;20194;-73
2023/10/22 00:53:52;;;;;;;7.50;2.28;;;33.40;25.00;;;;;;4984046;28;20186;-76
2023/10/22 00:56:22;;;;;;;6.32;1.88;;;33.40;23.90;;;;;;5018431;28;20228;-75
2023/10/22 00:58:50;;;;;;;5.78;1.80;;;33.50;21.60;;;;;;5010979;28;20193;-74
2023/10/22 01:01:18;;;;;;;10.68;2.20;;;33.40;23.80;;;;;;5012267;28;20217;-74
2023/10/22 01:03:46;;;;;;;6.93;2.42;;;33.40;21.10;;;;;;5013499;28;20240;-74
2023/10/22 01:06:14;;;;;;;8.05;1.90;;;32.70;22.00;;;;;;5013507;28;20232;-74
2023/10/22 01:08:42;;;;;;;3.95;1.67;;;32.90;24.10;;;;;;5013360;28;20206;-74
2023/10/22 01:11:11;;;;;;;6.35;1.85;;;33.40;25.10;;;;;;5013474;28;20228;-74
2023/10/22 01:13:40;;;;;;;8.55;1.95;;;34.10;19.10;;;;;;5013630;28;20260;-74
2023/10/22 01:16:08;;;;;;;8.68;1.90;;;34.50;17.70;;;;;;5012731;28;20217;-74
2023/10/22 01:18:36;;;;;;;9.70;1.95;;;34.30;16.70;;;;;;5013455;28;20261;-75
2023/10/22 01:21:04;;;;;;;8.30;1.88;;;34.70;17.10;;;;;;5012655;28;20268;-74
2023/10/22 01:23:41;;;;;;;7.65;1.85;;;34.80;13.20;;;;;;5012804;28;20240;-74
2023/10/22 01:26:09;;;;;;;6.15;2.03;;;34.80;10.10;;;;;;5013390;28;20261;-73
2023/10/22 01:28:37;;;;;;;9.10;1.58;;;34.80;12.30;;;;;;5013257;28;20717;-73
2023/10/22 01:31:08;;;;;;;6.80;1.30;;;34.00;2.20;;;;;;5012541;28;20547;-74
2023/10/22 01:33:35;;;;;;;3.55;1.23;;;33.40;2.40;;;;;;5013304;28;21009;-75
2023/10/22 01:36:03;;;;;;;5.95;1.63;;;33.30;4.00;;;;;;5013206;28;20210;-74
2023/10/22 01:38:31;;;;;;;5.82;1.50;;;33.80;3.80;;;;;;5012787;28;20606;-75
2023/10/22 01:40:58;;;;;;;8.13;1.45;;;33.30;1.00;;;;;;5013106;28;20602;-74
2023/10/22 01:43:26;;;;;;;7.10;1.30;;;33.20;1.00;;;;;;5012720;28;20190;-74
2023/10/22 01:45:54;;;;;;;5.75;1.42;;;32.90;1.00;;;;;;5012361;28;20186;-73
2023/10/22 01:48:22;;;;;;;5.07;1.30;;;32.50;1.00;;;;;;5013066;28;20644;-72
2023/10/22 01:50:49;;;;;;;2.90;0.95;;;32.60;1.00;;;;;;5012931;28;20224;-73
2023/10/22 01:53:17;;;;;;;3.40;1.30;;;32.70;1.00;;;;;;5011921;28;20186;-74
2023/10/22 01:55:44;;;;;;;3.28;1.40;;;32.80;1.00;;;;;;5012866;28;20178;-73
2023/10/22 01:58:12;;;;;;;2.78;1.23;;;33.20;1.00;;;;;;5012647;28;20182;-73
2023/10/22 02:00:40;;;;;;;6.53;1.00;;;33.30;1.00;;;;;;5012032;28;20662;-75
2023/10/22 02:03:07;;;;;;;3.30;1.10;;;33.10;1.00;;;;;;5012268;28;20194;-73
2023/10/22 02:05:35;;;;;;;7.07;1.63;;;33.30;1.00;;;;;;5012739;28;20235;-74
2023/10/22 02:08:04;;;;;;;2.72;1.00;;;33.40;1.00;;;;;;5010914;28;20556;-74
2023/10/22 02:10:33;;;;;;;8.60;1.10;;;33.00;1.00;;;;;;5012787;28;20177;-74
2023/10/22 02:13:00;;;;;;;7.95;1.08;;;33.00;1.00;;;;;;5011231;28;20662;-73
2023/10/22 02:15:28;;;;;;;2.45;0.90;;;33.10;1.00;;;;;;5012287;28;20177;-74
2023/10/22 02:17:56;;;;;;;8.45;0.95;;;32.90;1.00;;;;;;5012100;28;20224;-74
2023/10/22 02:20:23;;;;;;;5.65;1.05;;;33.10;1.00;;;;;;5012496;28;20174;-75
2023/10/22 02:22:51;;;;;;;4.40;0.80;;;33.00;1.00;;;;;;5011649;28;20190;-73
2023/10/22 02:25:19;;;;;;;2.30;0.95;;;32.80;1.00;;;;;;5012432;28;20174;-74
2023/10/22 02:27:46;;;;;;;3.50;0.68;;;33.00;1.00;;;;;;5012417;28;20578;-76
2023/10/22 02:30:14;;;;;;;3.38;0.95;;;33.10;1.00;;;;;;5011699;28;20182;-74
2023/10/22 02:32:42;;;;;;;5.75;1.05;;;33.20;1.00;;;;;;4992860;28;20548;-75
2023/10/22 02:35:10;;;;;;;5.05;0.82;;;33.20;1.00;;;;;;5010881;28;20182;-74
2023/10/22 02:37:38;;;;;;;3.75;0.90;;;32.80;1.00;;;;;;5011567;28;20217;-74
2023/10/22 02:40:09;;;;;;;5.05;1.08;;;32.70;1.00;;;;;;5012279;28;20977;-74
2023/10/22 02:42:40;;;;;;;2.47;0.63;;;32.50;1.00;;;;;;5012173;28;20212;-73
2023/10/22 02:48:30;;;;;;;7.23;0.80;;;32.50;1.00;;;;;;5010988;28;20185;-73
2023/10/22 02:56:04;;;;;;;5.97;1.00;;;32.50;1.00;;;;;;4962813;28;20683;-73
2023/10/22 02:58:31;;;;;;;4.90;0.50;;;32.40;1.00;;;;;;4972888;28;20183;-76
2023/10/22 03:01:05;;;;;;;2.35;0.70;;;32.50;1.00;;;;;;4972776;28;20175;-74
2023/10/22 03:03:38;;;;;;;0.97;0.50;;;32.50;1.00;;;;;;4972155;28;20668;-73
2023/10/22 03:06:11;;;;;;;5.93;0.70;;;32.10;1.00;;;;;;4975062;28;20190;-73
2023/10/22 03:08:40;;;;;;;3.13;0.93;;;32.20;1.00;;;;;;4991683;28;20194;-73
2023/10/22 03:11:16;;;;;;;2.03;0.53;;;32.00;1.00;;;;;;4990407;28;20198;-72
2023/10/22 03:13:43;;;;;;;2.92;1.13;;;32.20;1.00;;;;;;4991374;28;20190;-73
2023/10/22 03:16:14;;;;;;;20.07;0.90;;;32.10;1.00;;;;;;4991155;28;20576;-72
2023/10/22 03:22:04;;;;;;;1.70;0.67;;;31.60;1.00;;;;;;4991204;28;20672;-73
2023/10/22 03:24:31;;;;;;;1.60;0.50;;;31.50;1.00;;;;;;4991808;28;20253;-72
2023/10/22 03:27:00;;;;;;;9.33;1.00;;;32.00;1.00;;;;;;4990918;28;20667;-73
2023/10/22 03:29:28;;;;;;;7.20;0.90;;;31.80;1.00;;;;;;4991229;28;20193;-71
2023/10/22 03:31:55;;;;;;;4.57;0.80;;;31.40;1.00;;;;;;4992928;28;20265;-71
2023/10/22 03:34:22;;;;;;;9.53;0.93;;;31.40;1.00;;;;;;4993037;28;20214;-71
2023/10/22 03:36:50;;;;;;;6.30;0.73;;;31.30;1.00;;;;;;4991419;28;20269;-73
2023/10/22 03:39:19;;;;;;;1.07;0.63;;;31.70;1.00;;;;;;4993107;28;20636;-73
2023/10/22 03:41:47;;;;;;;4.13;0.73;;;31.90;1.00;;;;;;4993193;28;20261;-73
2023/10/22 03:44:14;;;;;;;3.20;0.65;;;31.90;1.00;;;;;;4993326;28;20198;-69
2023/10/22 03:46:41;;;;;;;1.35;0.52;;;31.80;1.00;;;;;;4959732;28;20179;-70
2023/10/22 03:49:09;;;;;;;2.97;0.70;;;31.40;1.00;;;;;;4983283;28;20893;-72
2023/10/22 03:51:36;;;;;;;1.27;0.53;;;31.20;1.00;;;;;;4995145;28;20233;-73
2023/10/22 03:54:03;;;;;;;1.60;0.40;;;31.10;1.00;;;;;;5014491;28;20530;-69
2023/10/22 03:56:30;;;;;;;0.93;0.47;;;31.30;1.00;;;;;;4998581;28;20217;-72
2023/10/22 03:58:59;;;;;;;2.20;0.60;;;31.20;1.00;;;;;;4994826;28;20225;-72
2023/10/22 04:01:26;;;;;;;3.50;0.70;;;31.20;1.00;;;;;;4994730;28;20658;-69
2023/10/22 04:03:53;;;;;;;3.43;0.77;;;31.50;1.00;;;;;;4994553;28;20549;-71
2023/10/22 04:06:21;;;;;;;6.23;0.70;;;31.50;1.00;;;;;;4994541;28;20678;-72
2023/10/22 04:08:48;;;;;;;4.10;0.63;;;31.50;1.00;;;;;;4994791;28;20181;-73
2023/10/22 04:11:20;;;;;;;1.23;0.50;;;31.30;1.00;;;;;;4994296;28;20583;-73
2023/10/22 04:13:47;;;;;;;3.57;0.70;;;31.20;1.00;;;;;;4994585;28;20201;-75
2023/10/22 04:16:18;;;;;;;3.00;0.80;;;31.20;1.00;;;;;;4994151;28;20227;-72
2023/10/22 04:18:45;;;;;;;2.43;0.60;;;31.60;1.00;;;;;;4994186;28;20187;-72
2023/10/22 04:21:18;;;;;;;1.60;0.60;;;31.20;1.00;;;;;;4994125;28;20189;-73
2023/10/22 04:23:46;;;;;;;2.83;0.73;;;31.10;1.00;;;;;;4994414;28;20186;-73
2023/10/22 04:26:14;;;;;;;1.40;0.50;;;31.40;1.00;;;;;;4993480;28;20198;-74
2023/10/22 04:28:47;;;;;;;0.77;0.40;;;31.40;1.00;;;;;;4993952;28;20187;-74
2023/10/22 04:31:14;;;;;;;3.20;0.50;;;31.10;1.00;;;;;;4994187;28;20185;-74
2023/10/22 04:33:42;;;;;;;5.37;0.67;;;31.10;1.00;;;;;;4993824;28;20262;-74
2023/10/22 04:36:21;;;;;;;3.40;0.63;;;31.10;1.00;;;;;;4993970;28;20210;-75
2023/10/22 04:38:49;;;;;;;2.47;0.60;;;31.20;1.00;;;;;;4995501;28;20616;-74
2023/10/22 04:41:16;;;;;;;1.27;0.60;;;31.10;1.00;;;;;;4994807;28;20214;-74
2023/10/22 04:43:43;;;;;;;4.53;0.50;;;31.30;1.00;;;;;;4993169;28;20186;-72
2023/10/22 04:46:11;;;;;;;4.47;0.40;;;31.30;1.00;;;;;;4993891;28;20183;-75
2023/10/22 04:48:38;;;;;;;2.63;0.43;;;31.30;1.00;;;;;;4993101;28;20183;-74
2023/10/22 04:51:07;;;;;;;3.43;0.60;;;31.30;1.00;;;;;;4993678;28;20183;-72
2023/10/22 04:53:37;;;;;;;0.73;0.43;;;31.20;1.00;;;;;;4993768;28;20225;-74
2023/10/22 04:56:06;;;;;;;1.87;0.53;;;31.00;1.00;;;;;;4993479;28;20288;-74
2023/10/22 04:58:35;;;;;;;2.83;0.65;;;31.20;1.00;;;;;;4993646;28;20185;-74
2023/10/22 05:01:02;;;;;;;4.37;0.57;;;31.20;1.00;;;;;;4992120;28;20538;-73
2023/10/22 05:03:29;;;;;;;1.77;0.70;;;31.20;1.00;;;;;;4992782;28;20651;-74
2023/10/22 05:05:56;;;;;;;5.37;0.67;;;31.30;1.00;;;;;;4993784;28;20272;-73
2023/10/22 05:08:26;;;;;;;2.87;0.80;;;31.00;1.00;;;;;;4993543;28;20178;-73
2023/10/22 05:10:53;;;;;;;3.23;0.70;;;31.00;1.00;;;;;;4993179;28;20191;-73
2023/10/22 05:13:22;;;;;;;0.97;0.40;;;30.80;1.00;;;;;;4993099;28;20719;-73
2023/10/22 05:15:54;;;;;;;3.37;0.90;;;30.80;1.00;;;;;;4993336;28;20246;-73
2023/10/22 05:18:22;;;;;;;1.80;0.40;;;30.80;1.00;;;;;;4992856;28;20190;-70
2023/10/22 05:20:49;;;;;;;5.13;0.60;;;30.70;1.00;;;;;;4993191;28;20183;-72
2023/10/22 05:23:16;;;;;;;3.00;0.53;;;30.80;1.00;;;;;;4992327;28;20194;-72
2023/10/22 05:25:43;;;;;;;1.30;0.70;;;30.50;1.00;;;;;;4992865;28;20174;-72
2023/10/22 05:28:11;;;;;;;5.90;1.00;;;30.40;1.00;;;;;;4993114;28;20194;-70
2023/10/22 05:30:38;;;;;;;2.33;0.60;;;30.00;1.00;;;;;;4993137;28;20186;-73
2023/10/22 05:33:05;;;;;;;2.33;0.60;;;30.10;1.00;;;;;;4992299;28;20179;-72
2023/10/22 05:35:36;;;;;;;1.67;0.77;;;30.00;1.00;;;;;;4992992;28;20183;-73
2023/10/22 05:38:03;;;;;;;4.83;0.93;;;30.00;1.00;;;;;;4993151;28;20217;-74
2023/10/22 05:40:37;;;;;;;2.63;0.80;;;29.90;1.00;;;;;;4991931;28;20183;-72
2023/10/22 05:43:04;;;;;;;2.50;0.67;;;30.00;1.00;;;;;;4992934;28;20192;-73
2023/10/22 05:45:32;;;;;;;5.40;0.60;;;30.00;1.00;;;;;;4992963;28;20546;-72
2023/10/22 05:48:00;;;;;;;7.07;0.90;;;30.20;1.00;;;;;;4992832;28;20194;-74
2023/10/22 05:50:27;;;;;;;2.30;0.70;;;30.00;1.00;;;;;;4992675;28;20183;-74
2023/10/22 05:52:54;;;;;;;1.70;0.90;;;30.10;1.00;;;;;;4992680;28;20187;-74
2023/10/22 05:55:22;;;;;;;9.90;1.37;;;30.10;1.00;;;;;;4992279;28;20265;-73
2023/10/22 05:57:49;;;;;;;6.33;0.77;;;29.90;1.00;;;;;;4992535;28;20222;-74
2023/10/22 06:00:16;;;;;;;3.30;0.67;;;29.80;1.00;;;;;;4992578;28;20210;-75
2023/10/22 06:02:44;;;;;;;2.87;0.70;;;29.60;1.00;;;;;;4992266;28;20178;-71
2023/10/22 06:05:13;;;;;;;2.27;0.70;;;29.70;1.00;;;;;;4992760;28;20171;-72
2023/10/22 06:07:41;;;;;;;3.27;0.60;;;29.90;1.00;;;;;;4991750;28;20187;-74
2023/10/22 06:10:10;;;;;;;1.13;0.50;;;30.10;1.00;;;;;;4991574;28;20222;-71
2023/10/22 06:12:37;;;;;;;4.83;0.60;;;30.10;1.00;;;;;;4992397;28;20211;-71
2023/10/22 06:15:05;;;;;;;2.37;0.60;;;29.90;1.00;;;;;;4992672;28;20187;-74
2023/10/22 06:17:32;;;;;;;2.80;0.63;;;29.80;1.00;;;;;;4990474;28;20241;-74
2023/10/22 06:19:59;;;;;;;4.47;0.60;;;29.50;1.00;;;;;;4991097;28;20191;-75
2023/10/22 06:22:26;;;;;;;3.07;0.80;;;29.50;1.00;;;;;;4992371;28;20667;-74
2023/10/22 06:24:54;;;;;;;1.23;0.60;;;29.30;1.00;;;;;;4992140;28;20194;-74
2023/10/22 06:27:21;;;;;;;1.83;0.63;;;29.30;1.00;;;;;;4991903;28;20209;-74
2023/10/22 06:29:49;;;;;;;1.17;0.70;;;29.40;1.00;;;;;;4992202;28;20190;-69
2023/10/22 06:32:16;;;;;;;3.27;0.93;;;29.30;1.00;;;;;;4991929;28;20659;-73
2023/10/22 06:34:43;;;;;;;1.77;0.60;;;29.50;1.00;;;;;;4991994;28;20563;-72
2023/10/22 06:37:12;;;;;;;1.90;0.80;;;29.40;1.00;;;;;;4991802;28;20214;-73
2023/10/22 06:39:39;;;;;;;2.10;0.60;;;29.40;1.00;;;;;;4991781;28;20202;-73
2023/10/22 06:42:08;;;;;;;1.57;0.60;;;29.20;1.00;;;;;;4990855;28;20218;-74
2023/10/22 06:44:41;;;;;;;5.50;1.33;;;29.20;1.00;;;;;;4992094;28;20265;-72
2023/10/22 06:47:09;;;;;;;1.07;0.60;;;29.10;1.00;;;;;;4991092;28;20198;-72
2023/10/22 06:49:36;;;;;;;1.57;0.50;;;29.00;1.00;;;;;;4992071;28;20182;-71
2023/10/22 06:52:04;;;;;;;1.73;0.50;;;28.90;1.00;;;;;;4988509;28;20178;-73
2023/10/22 06:54:31;;;;;;;1.17;0.60;;;28.90;1.00;;;;;;4991779;28;20211;-72
2023/10/22 06:56:59;;;;;;;1.43;0.57;;;29.00;1.00;;;;;;4993508;28;20657;-71
2023/10/22 06:59:28;;;;;;;1.17;0.50;;;28.90;1.00;;;;;;4993122;28;20186;-73
2023/10/22 07:01:55;;;;;;;6.80;0.60;;;28.90;1.00;;;;;;4993410;28;20264;-72
2023/10/22 07:04:23;;;;;;;4.93;0.70;;;28.90;1.00;;;;;;4993186;28;20266;-71
2023/10/22 07:06:51;;;;;;;2.60;0.60;;;28.80;1.00;;;;;;4993145;28;20198;-72
2023/10/22 07:09:18;;;;;;;1.30;0.60;;;28.80;1.00;;;;;;4991706;28;20187;-73
2023/10/22 07:11:46;;;;;;;1.63;1.10;;;28.80;1.00;;;;;;4993647;28;20178;-72
2023/10/22 07:14:14;;;;;;;0.97;0.60;;;28.80;1.00;;;;;;4993514;28;20175;-72
2023/10/22 07:20:04;;;;;;;2.03;0.60;;;28.40;1.00;;;;;;4992624;28;20309;-72
2023/10/22 07:22:36;;;;;;;0.63;0.40;;;28.40;1.00;;;;;;4995516;28;20641;-75
2023/10/22 07:25:04;;;;;;;0.83;0.53;;;28.40;1.00;;;;;;4996788;28;20187;-72
2023/10/22 07:27:31;;;;;;;2.13;0.60;;;28.30;1.00;;;;;;4997334;28;20261;-73
2023/10/22 07:29:59;;;;;;;1.77;0.60;;;28.10;1.00;;;;;;4995627;28;20187;-71
2023/10/22 07:32:26;;;;;;;0.67;0.50;;;27.90;1.00;;;;;;4997295;28;20575;-72
2023/10/22 07:34:53;;;;;;;3.77;0.60;;;27.80;1.00;;;;;;4996704;28;20190;-71
2023/10/22 07:37:20;;;;;;;4.37;0.63;;;27.70;1.00;;;;;;4996927;28;20229;-73
2023/10/22 07:39:48;;;;;;;3.23;0.70;;;27.50;1.00;;;;;;4995573;28;20325;-74
2023/10/22 07:42:18;;;;;;;1.97;0.70;;;27.40;1.00;;;;;;4996891;28;20257;-72
2023/10/22 07:44:45;;;;;;;1.20;0.60;;;27.30;1.00;;;;;;4996677;28;20190;-74
2023/10/22 07:47:12;;;;;;;0.77;0.57;;;27.00;1.00;;;;;;4996709;28;20269;-71
2023/10/22 07:49:40;;;;;;;1.00;0.60;;;26.80;1.00;;;;;;4996635;28;20277;-72
2023/10/22 07:52:07;;;;;;;1.13;0.73;;;26.60;1.00;;;;;;4996629;28;20186;-75
2023/10/22 07:54:34;;;;;;;3.27;0.83;;;26.40;1.00;;;;;;4996412;28;20214;-73
2023/10/22 07:57:01;;;;;;;4.33;0.90;;;26.30;1.00;;;;;;4996838;28;20202;-74
2023/10/22 07:59:29;;;;;;;2.27;0.70;;;26.20;1.00;;;;;;4996599;28;20644;-74
2023/10/22 08:01:56;;;;;;;3.17;0.90;;;26.10;1.00;;;;;;4996503;28;20759;-72
2023/10/22 08:04:23;;;;;;;1.97;0.70;;;26.00;1.00;;;;;;4996096;28;20186;-74
2023/10/22 08:06:50;;;;;;;3.30;0.80;;;25.80;1.00;;;;;;4996620;28;20174;-76
2023/10/22 08:09:18;;;;;;;0.97;0.70;;;25.70;1.00;;;;;;4996468;28;20187;-75
2023/10/22 08:11:45;;;;;;;1.13;0.70;;;25.60;1.00;;;;;;4996215;28;20179;-75
2023/10/22 08:14:13;;;;;;;3.27;1.00;;;25.50;1.00;;;;;;4996167;28;20218;-73
2023/10/22 08:16:40;;;;;;;13.37;6.40;;;25.30;1.00;;;;;;4996085;28;20198;-74
2023/10/22 08:19:07;;;;;;;13.23;7.50;;;25.20;1.00;;;;;;4996174;28;20629;-73
2023/10/22 08:21:35;;;;;;;5.57;1.60;;;25.10;1.00;;;;;;4995498;28;20191;-72
2023/10/22 08:24:02;;;;;;;1.93;0.83;;;25.00;1.00;;;;;;4996134;28;20277;-73
2023/10/22 08:26:29;;;;;;;2.00;0.80;;;24.90;1.00;;;;;;4995981;28;20210;-72
2023/10/22 08:28:57;;;;;;;3.17;0.90;;;24.80;1.00;;;;;;4995066;28;20233;-72
2023/10/22 08:31:24;;;;;;;2.93;0.70;;;24.70;1.00;;;;;;4996335;28;20171;-75
2023/10/22 08:33:51;;;;;;;0.70;0.50;;;24.60;1.00;;;;;;4995122;28;20209;-73
2023/10/22 08:36:18;;;;;;;2.50;1.00;;;24.50;1.00;;;;;;4995893;28;20240;-76
2023/10/22 08:38:46;;;;;;;0.80;0.50;;;24.40;1.00;;;;;;4995795;28;20194;-74
2023/10/22 08:41:22;;;;;;;2.40;0.80;;;24.30;1.00;;;;;;4995642;28;20374;-72
2023/10/22 08:43:50;;;;;;;2.07;0.80;;;24.20;1.00;;;;;;4995716;28;20178;-71
2023/10/22 08:46:18;;;;;;;1.63;0.77;;;24.20;1.00;;;;;;4995965;28;20206;-75
2023/10/22 08:48:46;;;;;;;4.83;0.90;;;24.10;1.00;;;;;;4995955;28;20174;-73
2023/10/22 08:54:36;;;;;;;4.30;0.70;;;23.90;1.00;;;;;;4994964;28;20253;-77
2023/10/22 08:57:04;;;;;;;0.93;0.80;;;23.80;1.00;;;;;;4995529;28;20680;-73
2023/10/22 08:59:34;;;;;;;4.90;0.80;;;23.70;1.00;;;;;;4994474;28;20229;-72
2023/10/22 09:02:07;;;;;;;0.97;0.70;;;23.60;1.00;;;;;;5007573;28;20368;-73
2023/10/22 09:04:34;;;;;;;6.03;0.67;;;23.60;1.00;;;;;;4995024;28;20227;-74
2023/10/22 09:07:02;;;;;;;1.27;0.80;;;23.60;1.00;;;;;;4995560;28;20700;-75
2023/10/22 09:09:34;;;;;;;1.00;0.70;;;23.50;1.00;;;;;;4995593;28;20167;-74
2023/10/22 09:12:53;;;;;;;3.80;0.73;;;23.40;1.00;;;;;;4995362;28;20232;-75
2023/10/22 09:15:20;;;;;;;5.50;0.80;;;23.30;1.00;;;;;;4995242;28;20529;-73
2023/10/22 09:17:58;;;;;;;1.47;0.50;;;23.30;1.00;;;;;;4995481;28;20211;-74
2023/10/22 09:20:27;;;;;;;3.00;0.50;;;23.30;1.00;;;;;;4995450;28;20683;-75
2023/10/22 09:23:15;;;;;;;2.63;0.80;;;23.20;1.00;;;;;;4995281;28;20197;-74
2023/10/22 09:25:44;;;;;;;1.90;0.90;;;23.10;1.00;;;;;;4994594;28;20222;-74
2023/10/22 09:28:28;;;;;;;1.03;0.67;;;23.00;1.00;;;;;;4995085;28;20547;-73
2023/10/22 09:30:56;;;;;;;2.57;1.07;;;22.90;1.00;;;;;;4995113;28;20182;-74
2023/10/22 09:33:41;;;;;;;1.13;0.60;;;22.80;1.00;;;;;;4994714;28;20182;-75
2023/10/22 09:36:10;;;;;;;5.17;0.80;;;22.80;1.00;;;;;;4992795;28;20233;-75
2023/10/22 09:38:51;;;;;;;2.80;0.70;;;22.70;1.00;;;;;;4994419;28;20228;-76
2023/10/22 09:41:31;;;;;;;3.17;0.73;;;22.50;1.00;;;;;;4994869;28;20174;-75
2023/10/22 09:44:00;;;;;;;3.27;0.83;;;22.50;1.00;;;;;;4994429;28;20186;-72
2023/10/22 09:46:32;;;;;;;2.47;0.70;;;22.50;1.00;;;;;;4993857;28;20673;-75
2023/10/22 09:49:01;;;;;;;6.77;0.83;;;22.50;1.00;;;;;;4994553;28;20183;-72
2023/10/22 09:51:34;;;;;;;3.63;0.90;;;22.40;1.00;;;;;;4994164;28;20187;-73
2023/10/22 09:54:06;;;;;;;3.10;0.80;;;22.30;1.00;;;;;;4992905;28;20273;-74
2023/10/22 09:56:39;;;;;;;4.40;0.70;;;22.30;1.00;;;;;;4994197;28;20206;-73
2023/10/22 09:59:08;;;;;;;5.13;0.87;;;22.20;1.00;;;;;;4994937;28;20175;-74
2023/10/22 10:01:37;;;;;;;2.07;0.83;;;22.10;1.00;;;;;;4994058;28;20198;-73
2023/10/22 10:04:06;;;;;;;2.67;1.00;;;21.90;1.00;;;;;;4994721;28;20276;-77
2023/10/22 10:06:36;;;;;;;1.03;0.70;;;21.80;1.00;;;;;;4994125;28;20175;-75
2023/10/22 10:09:04;;;;;;;5.27;1.20;;;21.70;1.00;;;;;;4994327;28;20225;-72
2023/10/22 10:11:33;;;;;;;3.67;1.00;;;21.60;1.00;;;;;;4994140;28;20171;-73
2023/10/22 10:14:32;;;;;;;1.27;0.80;;;21.50;1.00;;;;;;4994440;28;20178;-74
2023/10/22 10:17:02;;;;;;;4.57;0.87;;;21.50;1.00;;;;;;4983520;28;20632;-72
2023/10/22 10:19:30;;;;;;;2.87;0.97;;;21.40;1.00;;;;;;4994384;28;20169;-73
2023/10/22 10:21:57;;;;;;;3.60;1.00;;;21.30;1.00;;;;;;4993961;28;20189;-73
2023/10/22 10:24:32;;;;;;;3.70;1.00;;;21.20;1.00;;;;;;4994000;28;20178;-72
2023/10/22 10:27:00;;;;;;;2.47;0.97;;;21.10;1.00;;;;;;4993902;28;20174;-72
2023/10/22 10:29:32;;;;;;;2.50;1.00;;;20.90;1.00;;;;;;4993169;28;20186;-73
2023/10/22 10:32:15;;;;;;;4.07;1.10;;;20.70;1.00;;;;;;4994242;28;20187;-72
2023/10/22 10:34:44;;;;;;;1.90;0.87;;;20.40;1.00;;;;;;4994174;28;20197;-72
2023/10/22 10:37:16;;;;;;;4.27;1.10;;;20.10;1.00;;;;;;4993443;28;20221;-72
2023/10/22 10:39:47;;;;;;;2.30;0.90;;;20.10;1.00;;;;;;4993085;28;20662;-71
2023/10/22 10:42:37;;;;;;;5.10;0.97;;;19.90;1.00;;;;;;4992641;28;20182;-73
2023/10/22 10:45:07;;;;;;;2.90;0.93;;;19.70;1.00;;;;;;4988404;28;20672;-73
2023/10/22 10:47:36;;;;;;;2.43;0.90;;;19.60;1.00;;;;;;4992515;28;20178;-73
2023/10/22 10:50:12;;;;;;;2.70;1.00;;;19.60;1.00;;;;;;4993094;28;20190;-73
2023/10/22 10:52:42;;;;;;;3.87;1.03;;;19.50;1.30;;;;;;4992480;28;20193;-73
2023/10/22 10:55:20;;;;;;;3.37;1.00;;;19.40;1.70;;;;;;4991960;28;20309;-74
2023/10/22 10:57:52;;;;;;;5.90;1.00;;;19.60;1.40;;;;;;4994976;28;21523;-73
2023/10/22 11:00:27;;;;;;;2.80;0.83;;;19.80;1.20;;;;;;4996211;28;20610;-74
2023/10/22 11:02:58;;;;;;;1.93;0.70;;;20.00;1.90;;;;;;4996983;28;20228;-73
2023/10/22 11:05:40;;;;;;;1.27;0.60;;;20.10;1.70;;;;;;4996685;28;20186;-75
2023/10/22 11:08:22;;;;;;;4.90;0.90;;;20.20;1.50;;;;;;4995978;28;20216;-72
2023/10/22 11:10:49;;;;;;;3.60;0.83;;;20.20;2.20;;;;;;4996293;28;20246;-75
2023/10/22 11:13:27;;;;;;;4.17;0.80;;;20.20;2.30;;;;;;4997388;28;20184;-74
2023/10/22 11:16:06;;;;;;;2.47;0.70;;;20.30;3.00;;;;;;4996959;28;20189;-74
2023/10/22 11:18:53;;;;;;;3.73;0.90;;;20.30;3.20;;;;;;4997116;28;20197;-73
2023/10/22 11:21:21;;;;;;;2.20;0.80;;;20.40;3.60;;;;;;4996868;28;20184;-75
2023/10/22 11:23:48;;;;;;;5.97;0.77;;;20.50;4.10;;;;;;4996909;28;20180;-74
2023/10/22 11:26:17;;;;;;;4.00;1.40;;;20.40;4.30;;;;;;4996371;28;20222;-73
2023/10/22 11:28:44;;;;;;;3.10;0.70;;;20.40;4.80;;;;;;4996863;28;20185;-75
2023/10/22 11:31:24;;;;;;;2.23;0.73;;;20.40;4.70;;;;;;4996968;28;20186;-74
2023/10/22 11:33:51;;;;;;;2.33;0.97;;;20.40;5.30;;;;;;4997038;28;20217;-74
2023/10/22 11:36:19;;;;;;;2.77;0.80;;;20.40;5.90;;;;;;4996631;28;20214;-72
2023/10/22 11:38:50;;;;;;;2.87;0.83;;;20.30;5.70;;;;;;4997200;28;20174;-73
2023/10/22 11:41:17;;;;;;;1.60;0.90;;;20.30;6.90;;;;;;4996589;28;20689;-73
2023/10/22 11:43:46;;;;;;;1.70;0.90;;;20.10;7.40;;;;;;4996785;28;20190;-73
2023/10/22 11:46:13;;;;;;;4.20;0.93;;;20.00;7.30;;;;;;4996468;28;20184;-72
2023/10/22 11:48:45;;;;;;;3.33;0.90;;;19.80;8.50;;;;;;4996555;28;20196;-74
2023/10/22 11:51:15;;;;;;;2.67;1.00;;;19.60;9.70;;;;;;4996255;28;20199;-73
2023/10/22 11:53:43;;;;;;;1.73;0.83;;;19.40;11.60;;;;;;4996615;28;20178;-73
2023/10/22 11:56:11;;;;;;;3.43;0.90;;;19.20;13.90;;;;;;4994020;28;20233;-73
2023/10/22 11:58:38;;;;;;;3.17;0.90;;;19.20;13.30;;;;;;4996560;28;20187;-73
2023/10/22 12:01:05;;;;;;;1.23;0.70;;;19.30;13.10;;;;;;4996320;28;20686;-74
2023/10/22 12:03:32;;;;;;;2.70;1.00;;;19.20;14.70;;;;;;4996363;28;20270;-74
2023/10/22 12:06:00;;;;;;;1.00;0.80;;;19.10;15.10;;;;;;4995854;28;20644;-74
2023/10/22 12:08:27;;;;;;;3.40;0.90;;;19.10;15.90;;;;;;4995508;28;20517;-72
2023/10/22 12:10:55;;;;;;;2.07;1.00;;;19.00;18.00;;;;;;4995999;28;20288;-73
2023/10/22 12:13:22;;;;;;;2.13;1.00;;;18.90;19.20;;;;;;4995990;28;20273;-73
2023/10/22 12:15:49;;;;;;;3.97;1.07;;;18.80;19.20;;;;;;4996107;28;20216;-73
2023/10/22 12:18:17;;;;;;;3.00;0.90;;;18.70;19.20;;;;;;4995479;28;20218;-73
2023/10/22 12:20:44;;;;;;;3.43;0.90;;;18.70;19.80;;;;;;4996005;28;20182;-71
2023/10/22 12:23:12;;;;;;;3.73;1.03;;;18.70;19.90;;;;;;4995162;28;20277;-73
2023/10/22 12:25:39;;;;;;;4.07;0.90;;;18.60;22.70;;;;;;4995981;28;20645;-73
2023/10/22 12:28:06;;;;;;;4.73;1.20;;;18.60;23.50;;;;;;4995559;28;20652;-72
2023/10/22 12:30:34;;;;;;;1.93;0.80;;;18.50;24.30;;;;;;4995455;28;20187;-72
2023/10/22 12:33:02;;;;;;;3.43;0.77;;;18.40;25.60;;;;;;4995628;28;20693;-74
2023/10/22 12:35:29;;;;;;;3.40;1.23;;;18.30;27.60;;;;;;4995415;28;20193;-72
2023/10/22 12:37:57;;;;;;;1.27;0.97;;;18.20;30.60;;;;;;4995174;28;20218;-73
2023/10/22 12:40:24;;;;;;;5.60;1.57;;;18.10;31.50;;;;;;4995755;28;20187;-71
2023/10/22 12:42:56;;;;;;;3.03;0.93;;;18.00;33.90;;;;;;4995474;28;20207;-71
2023/10/22 12:45:24;;;;;;;3.67;1.13;;;18.00;35.90;;;;;;4995097;28;20179;-72
2023/10/22 12:47:51;;;;;;;4.90;1.00;;;17.80;38.00;;;;;;4995680;28;20248;-72
2023/10/22 12:50:18;;;;;;;2.17;0.80;;;17.70;40.70;;;;;;4995493;28;20182;-72
2023/10/22 12:52:46;;;;;;;2.43;1.10;;;17.60;48.30;;;;;;4995373;28;20187;-72
2023/10/22 12:55:13;;;;;;;4.50;1.00;;;17.50;52.20;;;;;;4995485;28;20230;-72
2023/10/22 12:57:40;;;;;;;2.53;0.90;;;17.40;54.00;;;;;;4995196;28;20202;-73
2023/10/22 13:00:12;;;;;;;4.37;1.40;;;17.40;57.10;;;;;;4995231;28;20183;-73
2023/10/22 13:02:40;;;;;;;5.50;1.03;;;17.30;61.50;;;;;;4994576;28;20618;-72
2023/10/22 13:05:07;;;;;;;2.60;0.90;;;17.20;65.00;;;;;;4994965;28;20210;-73
2023/10/22 13:07:36;;;;;;;2.53;0.80;;;17.10;69.50;;;;;;4993825;28;20233;-72
2023/10/22 13:10:04;;;;;;;3.67;1.10;;;17.00;76.00;;;;;;4994445;28;20726;-74
2023/10/22 13:12:32;;;;;;;4.17;1.10;;;16.90;77.00;;;;;;4994486;28;20233;-72
2023/10/22 13:14:59;;;;;;;5.37;0.90;;;16.90;84.30;;;;;;4994588;28;20218;-73
2023/10/22 13:17:27;;;;;;;2.83;1.27;;;16.90;85.00;;;;;;4994884;28;20214;-71
2023/10/22 13:19:55;;;;;;;3.03;1.30;;;16.80;90.00;;;;;;4994596;28;20194;-73
2023/10/22 13:22:22;;;;;;;2.00;0.90;;;16.80;91.40;;;;;;4995045;28;20175;-73
2023/10/22 13:24:49;;;;;;;3.23;1.03;;;16.80;92.00;;;;;;4995131;28;20557;-72